sensor_id;sensor_type;location;lat;lon;timestamp;P1;durP1;ratioP1;P2;durP2;ratioP2
48667;SDS011;34453;52.198;5.004;2022-12-18T00:00:05;94.18;;;33.35;;
48667;SDS011;34453;52.198;5.004;2022-12-18T00:02:31;93.25;;;31.63;;
48667;SDS011;34453;52.198;5.004;2022-12-18T00:04:56;98.35;;;33.70;;
48667;SDS011;34453;52.198;5.004;2022-12-18T00:07:24;96.90;;;31.00;;
48667;SDS011;34453;52.198;5.004;2022-12-18T00:09:50;87.47;;;30.60;;
48667;SDS011;34453;52.198;5.004;2022-12-18T00:12:15;101.90;;;32.80;;
48667;SDS011;34453;52.198;5.004;2022-12-18T00:14:40;103.68;;;34.28;;
48667;SDS011;34453;52.198;5.004;2022-12-18T00:17:05;97.40;;;31.95;;
48667;SDS011;34453;52.198;5.004;2022-12-18T00:19:31;111.30;;;36.17;;
48667;SDS011;34453;52.198;5.004;2022-12-18T00:21:56;96.72;;;32.67;;
48667;SDS011;34453;52.198;5.004;2022-12-18T00:24:23;109.47;;;34.70;;
48667;SDS011;34453;52.198;5.004;2022-12-18T00:26:48;96.72;;;33.72;;
48667;SDS011;34453;52.198;5.004;2022-12-18T00:29:13;96.45;;;33.95;;
48667;SDS011;34453;52.198;5.004;2022-12-18T00:31:39;90.80;;;32.40;;
48667;SDS011;34453;52.198;5.004;2022-12-18T00:34:05;97.28;;;32.05;;
48667;SDS011;34453;52.198;5.004;2022-12-18T00:36:31;88.63;;;31.73;;
48667;SDS011;34453;52.198;5.004;2022-12-18T00:38:58;96.30;;;32.83;;
48667;SDS011;34453;52.198;5.004;2022-12-18T00:41:24;83.97;;;29.98;;
48667;SDS011;34453;52.198;5.004;2022-12-18T00:44:09;94.53;;;32.38;;
48667;SDS011;34453;52.198;5.004;2022-12-18T00:46:35;78.45;;;29.90;;
48667;SDS011;34453;52.198;5.004;2022-12-18T00:49:00;88.32;;;32.10;;
48667;SDS011;34453;52.198;5.004;2022-12-18T00:51:25;90.95;;;30.27;;
48667;SDS011;34453;52.198;5.004;2022-12-18T00:53:51;92.10;;;33.88;;
48667;SDS011;34453;52.198;5.004;2022-12-18T00:56:16;81.72;;;33.88;;
48667;SDS011;34453;52.198;5.004;2022-12-18T00:58:42;84.32;;;32.72;;
48667;SDS011;34453;52.198;5.004;2022-12-18T01:01:07;87.40;;;30.40;;
48667;SDS011;34453;52.198;5.004;2022-12-18T01:03:33;75.43;;;29.77;;
48667;SDS011;34453;52.198;5.004;2022-12-18T01:05:58;81.15;;;30.17;;
48667;SDS011;34453;52.198;5.004;2022-12-18T01:08:23;74.25;;;27.35;;
48667;SDS011;34453;52.198;5.004;2022-12-18T01:10:49;74.07;;;29.48;;
48667;SDS011;34453;52.198;5.004;2022-12-18T01:13:14;81.35;;;30.30;;
48667;SDS011;34453;52.198;5.004;2022-12-18T01:15:39;68.28;;;27.20;;
48667;SDS011;34453;52.198;5.004;2022-12-18T01:18:05;72.32;;;29.08;;
48667;SDS011;34453;52.198;5.004;2022-12-18T01:20:30;73.30;;;29.52;;
48667;SDS011;34453;52.198;5.004;2022-12-18T01:22:55;77.70;;;30.77;;
48667;SDS011;34453;52.198;5.004;2022-12-18T01:25:21;101.55;;;33.63;;
48667;SDS011;34453;52.198;5.004;2022-12-18T01:27:46;93.03;;;32.00;;
48667;SDS011;34453;52.198;5.004;2022-12-18T01:30:13;85.05;;;31.33;;
48667;SDS011;34453;52.198;5.004;2022-12-18T01:32:38;81.97;;;29.40;;
48667;SDS011;34453;52.198;5.004;2022-12-18T01:35:04;80.95;;;30.55;;
48667;SDS011;34453;52.198;5.004;2022-12-18T01:37:29;85.38;;;32.13;;
48667;SDS011;34453;52.198;5.004;2022-12-18T01:39:54;88.25;;;33.00;;
48667;SDS011;34453;52.198;5.004;2022-12-18T01:42:20;88.05;;;33.47;;
48667;SDS011;34453;52.198;5.004;2022-12-18T01:49:52;79.38;;;30.73;;
48667;SDS011;34453;52.198;5.004;2022-12-18T01:52:18;88.75;;;31.20;;
48667;SDS011;34453;52.198;5.004;2022-12-18T01:54:43;70.68;;;27.05;;
48667;SDS011;34453;52.198;5.004;2022-12-18T01:57:09;78.90;;;28.50;;
48667;SDS011;34453;52.198;5.004;2022-12-18T01:59:34;85.97;;;31.55;;
48667;SDS011;34453;52.198;5.004;2022-12-18T02:02:00;90.00;;;30.90;;
48667;SDS011;34453;52.198;5.004;2022-12-18T02:04:27;86.07;;;30.45;;
48667;SDS011;34453;52.198;5.004;2022-12-18T02:09:38;86.95;;;32.67;;
48667;SDS011;34453;52.198;5.004;2022-12-18T02:12:42;87.18;;;33.13;;
48667;SDS011;34453;52.198;5.004;2022-12-18T02:27:36;89.30;;;31.08;;
48667;SDS011;34453;52.198;5.004;2022-12-18T02:30:02;96.35;;;32.53;;
48667;SDS011;34453;52.198;5.004;2022-12-18T02:32:30;71.57;;;28.63;;
48667;SDS011;34453;52.198;5.004;2022-12-18T02:34:56;75.45;;;29.23;;
48667;SDS011;34453;52.198;5.004;2022-12-18T02:37:23;79.75;;;30.98;;
48667;SDS011;34453;52.198;5.004;2022-12-18T02:39:49;86.82;;;32.75;;
48667;SDS011;34453;52.198;5.004;2022-12-18T02:42:17;79.00;;;31.88;;
48667;SDS011;34453;52.198;5.004;2022-12-18T02:44:46;84.68;;;32.05;;
48667;SDS011;34453;52.198;5.004;2022-12-18T02:47:12;78.45;;;31.10;;
48667;SDS011;34453;52.198;5.004;2022-12-18T02:56:57;73.95;;;32.70;;
48667;SDS011;34453;52.198;5.004;2022-12-18T02:59:30;81.30;;;32.67;;
48667;SDS011;34453;52.198;5.004;2022-12-18T03:01:59;76.88;;;30.55;;
48667;SDS011;34453;52.198;5.004;2022-12-18T03:06:53;81.13;;;29.88;;
48667;SDS011;34453;52.198;5.004;2022-12-18T03:09:21;81.63;;;31.75;;
48667;SDS011;34453;52.198;5.004;2022-12-18T03:11:49;76.53;;;31.58;;
48667;SDS011;34453;52.198;5.004;2022-12-18T03:15:08;77.90;;;30.35;;
48667;SDS011;34453;52.198;5.004;2022-12-18T03:17:34;92.68;;;33.97;;
48667;SDS011;34453;52.198;5.004;2022-12-18T03:20:04;95.88;;;34.05;;
48667;SDS011;34453;52.198;5.004;2022-12-18T03:22:30;77.57;;;33.97;;
48667;SDS011;34453;52.198;5.004;2022-12-18T03:24:57;89.32;;;34.38;;
48667;SDS011;34453;52.198;5.004;2022-12-18T03:27:24;96.40;;;34.25;;
48667;SDS011;34453;52.198;5.004;2022-12-18T03:29:52;85.15;;;33.55;;
48667;SDS011;34453;52.198;5.004;2022-12-18T03:32:31;92.18;;;33.72;;
48667;SDS011;34453;52.198;5.004;2022-12-18T03:34:59;83.65;;;32.97;;
48667;SDS011;34453;52.198;5.004;2022-12-18T03:37:26;97.28;;;32.45;;
48667;SDS011;34453;52.198;5.004;2022-12-18T03:39:51;80.47;;;34.35;;
48667;SDS011;34453;52.198;5.004;2022-12-18T03:42:25;98.53;;;32.35;;
48667;SDS011;34453;52.198;5.004;2022-12-18T03:44:56;80.40;;;33.50;;
48667;SDS011;34453;52.198;5.004;2022-12-18T03:47:44;86.68;;;34.13;;
48667;SDS011;34453;52.198;5.004;2022-12-18T03:50:21;78.05;;;29.40;;
48667;SDS011;34453;52.198;5.004;2022-12-18T03:52:49;84.10;;;31.08;;
48667;SDS011;34453;52.198;5.004;2022-12-18T03:55:16;77.25;;;31.33;;
48667;SDS011;34453;52.198;5.004;2022-12-18T03:57:42;74.32;;;29.83;;
48667;SDS011;34453;52.198;5.004;2022-12-18T04:00:10;82.65;;;31.30;;
48667;SDS011;34453;52.198;5.004;2022-12-18T04:02:37;81.60;;;30.65;;
48667;SDS011;34453;52.198;5.004;2022-12-18T04:05:04;72.65;;;30.08;;
48667;SDS011;34453;52.198;5.004;2022-12-18T04:07:30;65.15;;;28.05;;
48667;SDS011;34453;52.198;5.004;2022-12-18T04:09:56;78.18;;;30.80;;
48667;SDS011;34453;52.198;5.004;2022-12-18T04:12:24;74.80;;;29.23;;
48667;SDS011;34453;52.198;5.004;2022-12-18T04:14:50;72.45;;;29.70;;
48667;SDS011;34453;52.198;5.004;2022-12-18T04:17:15;67.15;;;29.58;;
48667;SDS011;34453;52.198;5.004;2022-12-18T04:19:40;73.40;;;31.25;;
48667;SDS011;34453;52.198;5.004;2022-12-18T04:22:05;68.72;;;28.63;;
48667;SDS011;34453;52.198;5.004;2022-12-18T04:24:31;74.80;;;28.75;;
48667;SDS011;34453;52.198;5.004;2022-12-18T04:26:56;63.22;;;30.10;;
48667;SDS011;34453;52.198;5.004;2022-12-18T04:29:21;69.90;;;30.95;;
48667;SDS011;34453;52.198;5.004;2022-12-18T04:31:46;63.15;;;28.33;;
48667;SDS011;34453;52.198;5.004;2022-12-18T04:34:12;69.38;;;29.52;;
48667;SDS011;34453;52.198;5.004;2022-12-18T04:36:37;65.60;;;27.70;;
48667;SDS011;34453;52.198;5.004;2022-12-18T04:39:02;65.13;;;27.70;;
48667;SDS011;34453;52.198;5.004;2022-12-18T04:41:27;70.45;;;26.38;;
48667;SDS011;34453;52.198;5.004;2022-12-18T04:43:53;64.18;;;27.02;;
48667;SDS011;34453;52.198;5.004;2022-12-18T04:46:18;57.95;;;26.52;;
48667;SDS011;34453;52.198;5.004;2022-12-18T04:48:45;56.92;;;24.60;;
48667;SDS011;34453;52.198;5.004;2022-12-18T04:51:10;63.10;;;27.17;;
48667;SDS011;34453;52.198;5.004;2022-12-18T04:53:35;60.60;;;26.60;;
48667;SDS011;34453;52.198;5.004;2022-12-18T04:58:29;57.30;;;27.65;;
48667;SDS011;34453;52.198;5.004;2022-12-18T05:00:54;61.67;;;25.40;;
48667;SDS011;34453;52.198;5.004;2022-12-18T05:03:19;66.88;;;27.13;;
48667;SDS011;34453;52.198;5.004;2022-12-18T05:05:44;62.72;;;26.73;;
48667;SDS011;34453;52.198;5.004;2022-12-18T05:08:10;52.78;;;24.33;;
48667;SDS011;34453;52.198;5.004;2022-12-18T05:10:35;61.63;;;26.00;;
48667;SDS011;34453;52.198;5.004;2022-12-18T05:13:00;61.60;;;26.27;;
48667;SDS011;34453;52.198;5.004;2022-12-18T05:15:29;55.75;;;26.08;;
48667;SDS011;34453;52.198;5.004;2022-12-18T05:17:55;55.67;;;25.60;;
48667;SDS011;34453;52.198;5.004;2022-12-18T05:20:21;56.95;;;24.35;;
48667;SDS011;34453;52.198;5.004;2022-12-18T05:22:46;56.90;;;25.23;;
48667;SDS011;34453;52.198;5.004;2022-12-18T05:25:11;50.67;;;24.33;;
48667;SDS011;34453;52.198;5.004;2022-12-18T05:27:37;53.20;;;23.65;;
48667;SDS011;34453;52.198;5.004;2022-12-18T05:30:02;53.97;;;23.63;;
48667;SDS011;34453;52.198;5.004;2022-12-18T05:32:27;60.65;;;25.38;;
48667;SDS011;34453;52.198;5.004;2022-12-18T05:34:53;51.67;;;24.08;;
48667;SDS011;34453;52.198;5.004;2022-12-18T05:37:18;55.90;;;23.63;;
48667;SDS011;34453;52.198;5.004;2022-12-18T05:39:43;61.83;;;24.70;;
48667;SDS011;34453;52.198;5.004;2022-12-18T05:42:09;49.03;;;22.33;;
48667;SDS011;34453;52.198;5.004;2022-12-18T05:44:34;53.42;;;23.83;;
48667;SDS011;34453;52.198;5.004;2022-12-18T05:47:00;57.58;;;25.95;;
48667;SDS011;34453;52.198;5.004;2022-12-18T05:49:25;51.75;;;25.02;;
48667;SDS011;34453;52.198;5.004;2022-12-18T05:51:50;50.20;;;23.77;;
48667;SDS011;34453;52.198;5.004;2022-12-18T05:54:15;51.35;;;24.48;;
48667;SDS011;34453;52.198;5.004;2022-12-18T05:56:41;53.47;;;25.38;;
48667;SDS011;34453;52.198;5.004;2022-12-18T05:59:06;54.80;;;24.25;;
48667;SDS011;34453;52.198;5.004;2022-12-18T06:01:31;48.80;;;23.65;;
48667;SDS011;34453;52.198;5.004;2022-12-18T06:03:56;45.20;;;22.98;;
48667;SDS011;34453;52.198;5.004;2022-12-18T06:06:23;51.00;;;24.55;;
48667;SDS011;34453;52.198;5.004;2022-12-18T06:08:49;39.08;;;21.30;;
48667;SDS011;34453;52.198;5.004;2022-12-18T06:11:16;44.47;;;22.52;;
48667;SDS011;34453;52.198;5.004;2022-12-18T06:13:42;45.15;;;21.13;;
48667;SDS011;34453;52.198;5.004;2022-12-18T06:16:07;50.58;;;22.50;;
48667;SDS011;34453;52.198;5.004;2022-12-18T06:18:33;39.28;;;18.02;;
48667;SDS011;34453;52.198;5.004;2022-12-18T06:20:58;41.08;;;20.73;;
48667;SDS011;34453;52.198;5.004;2022-12-18T06:23:24;34.85;;;18.90;;
48667;SDS011;34453;52.198;5.004;2022-12-18T06:25:49;40.92;;;19.92;;
48667;SDS011;34453;52.198;5.004;2022-12-18T06:28:15;36.85;;;18.65;;
48667;SDS011;34453;52.198;5.004;2022-12-18T06:30:43;36.65;;;16.98;;
48667;SDS011;34453;52.198;5.004;2022-12-18T06:33:08;40.28;;;18.33;;
48667;SDS011;34453;52.198;5.004;2022-12-18T06:35:34;40.25;;;19.40;;
48667;SDS011;34453;52.198;5.004;2022-12-18T06:38:00;33.47;;;16.70;;
48667;SDS011;34453;52.198;5.004;2022-12-18T06:40:25;38.10;;;18.02;;
48667;SDS011;34453;52.198;5.004;2022-12-18T06:42:51;33.83;;;18.08;;
48667;SDS011;34453;52.198;5.004;2022-12-18T06:45:16;35.22;;;18.40;;
48667;SDS011;34453;52.198;5.004;2022-12-18T06:47:41;35.97;;;18.25;;
48667;SDS011;34453;52.198;5.004;2022-12-18T06:50:06;32.53;;;17.52;;
48667;SDS011;34453;52.198;5.004;2022-12-18T06:52:32;27.63;;;16.35;;
48667;SDS011;34453;52.198;5.004;2022-12-18T06:54:57;41.47;;;18.02;;
48667;SDS011;34453;52.198;5.004;2022-12-18T06:57:23;31.25;;;16.73;;
48667;SDS011;34453;52.198;5.004;2022-12-18T06:59:48;37.03;;;16.85;;
48667;SDS011;34453;52.198;5.004;2022-12-18T07:02:13;31.25;;;16.92;;
48667;SDS011;34453;52.198;5.004;2022-12-18T07:04:39;36.58;;;16.63;;
48667;SDS011;34453;52.198;5.004;2022-12-18T07:07:04;32.15;;;16.42;;
48667;SDS011;34453;52.198;5.004;2022-12-18T07:09:30;30.00;;;17.98;;
48667;SDS011;34453;52.198;5.004;2022-12-18T07:11:55;33.63;;;16.75;;
48667;SDS011;34453;52.198;5.004;2022-12-18T07:14:20;36.13;;;18.65;;
48667;SDS011;34453;52.198;5.004;2022-12-18T07:16:46;29.63;;;15.82;;
48667;SDS011;34453;52.198;5.004;2022-12-18T07:19:11;40.22;;;17.35;;
48667;SDS011;34453;52.198;5.004;2022-12-18T07:21:36;30.73;;;17.67;;
48667;SDS011;34453;52.198;5.004;2022-12-18T07:24:02;28.98;;;16.08;;
48667;SDS011;34453;52.198;5.004;2022-12-18T07:26:27;28.90;;;15.70;;
48667;SDS011;34453;52.198;5.004;2022-12-18T07:28:54;29.98;;;16.77;;
48667;SDS011;34453;52.198;5.004;2022-12-18T07:31:20;29.48;;;15.88;;
48667;SDS011;34453;52.198;5.004;2022-12-18T07:33:46;29.52;;;16.17;;
48667;SDS011;34453;52.198;5.004;2022-12-18T07:36:12;37.30;;;17.83;;
48667;SDS011;34453;52.198;5.004;2022-12-18T07:38:37;25.98;;;15.02;;
48667;SDS011;34453;52.198;5.004;2022-12-18T07:41:03;33.50;;;18.88;;
48667;SDS011;34453;52.198;5.004;2022-12-18T07:43:28;32.00;;;16.23;;
48667;SDS011;34453;52.198;5.004;2022-12-18T07:45:54;31.73;;;17.08;;
48667;SDS011;34453;52.198;5.004;2022-12-18T07:48:19;28.95;;;15.50;;
48667;SDS011;34453;52.198;5.004;2022-12-18T07:50:44;31.38;;;15.93;;
48667;SDS011;34453;52.198;5.004;2022-12-18T07:53:10;29.00;;;15.98;;
48667;SDS011;34453;52.198;5.004;2022-12-18T07:55:35;28.98;;;15.50;;
48667;SDS011;34453;52.198;5.004;2022-12-18T07:58:01;26.10;;;14.95;;
48667;SDS011;34453;52.198;5.004;2022-12-18T08:00:27;33.88;;;17.23;;
48667;SDS011;34453;52.198;5.004;2022-12-18T08:02:52;29.58;;;17.35;;
48667;SDS011;34453;52.198;5.004;2022-12-18T08:05:18;26.88;;;14.48;;
48667;SDS011;34453;52.198;5.004;2022-12-18T08:07:43;35.95;;;17.67;;
48667;SDS011;34453;52.198;5.004;2022-12-18T08:10:08;27.15;;;16.30;;
48667;SDS011;34453;52.198;5.004;2022-12-18T08:12:34;34.97;;;18.45;;
48667;SDS011;34453;52.198;5.004;2022-12-18T08:14:59;27.85;;;15.65;;
48667;SDS011;34453;52.198;5.004;2022-12-18T08:17:24;34.53;;;16.42;;
48667;SDS011;34453;52.198;5.004;2022-12-18T08:19:49;22.00;;;14.98;;
48667;SDS011;34453;52.198;5.004;2022-12-18T08:22:15;25.27;;;15.50;;
48667;SDS011;34453;52.198;5.004;2022-12-18T08:24:40;26.63;;;15.98;;
48667;SDS011;34453;52.198;5.004;2022-12-18T08:27:05;28.33;;;15.75;;
48667;SDS011;34453;52.198;5.004;2022-12-18T08:29:30;28.08;;;16.70;;
48667;SDS011;34453;52.198;5.004;2022-12-18T08:31:56;30.65;;;16.58;;
48667;SDS011;34453;52.198;5.004;2022-12-18T08:34:22;31.00;;;16.50;;
48667;SDS011;34453;52.198;5.004;2022-12-18T08:36:47;31.52;;;17.13;;
48667;SDS011;34453;52.198;5.004;2022-12-18T08:39:12;32.58;;;17.02;;
48667;SDS011;34453;52.198;5.004;2022-12-18T08:41:37;28.90;;;17.33;;
48667;SDS011;34453;52.198;5.004;2022-12-18T08:44:03;31.58;;;20.23;;
48667;SDS011;34453;52.198;5.004;2022-12-18T08:46:47;34.80;;;17.70;;
48667;SDS011;34453;52.198;5.004;2022-12-18T08:49:12;26.20;;;15.65;;
48667;SDS011;34453;52.198;5.004;2022-12-18T08:51:38;31.15;;;17.33;;
48667;SDS011;34453;52.198;5.004;2022-12-18T08:54:04;36.15;;;18.17;;
48667;SDS011;34453;52.198;5.004;2022-12-18T08:56:29;29.40;;;18.48;;
48667;SDS011;34453;52.198;5.004;2022-12-18T08:58:55;33.60;;;21.25;;
48667;SDS011;34453;52.198;5.004;2022-12-18T09:01:21;37.00;;;19.55;;
48667;SDS011;34453;52.198;5.004;2022-12-18T09:03:46;31.83;;;18.70;;
48667;SDS011;34453;52.198;5.004;2022-12-18T09:06:15;30.13;;;17.20;;
48667;SDS011;34453;52.198;5.004;2022-12-18T09:08:41;26.40;;;16.33;;
48667;SDS011;34453;52.198;5.004;2022-12-18T09:11:11;28.02;;;15.77;;
48667;SDS011;34453;52.198;5.004;2022-12-18T09:13:37;25.05;;;15.65;;
48667;SDS011;34453;52.198;5.004;2022-12-18T09:16:03;29.42;;;15.88;;
48667;SDS011;34453;52.198;5.004;2022-12-18T09:18:28;34.47;;;20.45;;
48667;SDS011;34453;52.198;5.004;2022-12-18T09:20:53;36.50;;;21.67;;
48667;SDS011;34453;52.198;5.004;2022-12-18T09:23:19;32.88;;;18.38;;
48667;SDS011;34453;52.198;5.004;2022-12-18T09:25:44;25.60;;;16.80;;
48667;SDS011;34453;52.198;5.004;2022-12-18T09:28:11;25.35;;;15.07;;
48667;SDS011;34453;52.198;5.004;2022-12-18T09:30:44;28.75;;;15.77;;
48667;SDS011;34453;52.198;5.004;2022-12-18T09:33:10;24.42;;;15.23;;
48667;SDS011;34453;52.198;5.004;2022-12-18T09:35:36;25.23;;;16.35;;
48667;SDS011;34453;52.198;5.004;2022-12-18T09:38:01;32.33;;;16.73;;
48667;SDS011;34453;52.198;5.004;2022-12-18T09:40:27;28.48;;;15.82;;
48667;SDS011;34453;52.198;5.004;2022-12-18T09:42:57;28.95;;;15.52;;
48667;SDS011;34453;52.198;5.004;2022-12-18T09:45:23;27.58;;;14.70;;
48667;SDS011;34453;52.198;5.004;2022-12-18T09:47:49;24.25;;;14.57;;
48667;SDS011;34453;52.198;5.004;2022-12-18T09:52:47;29.98;;;16.50;;
48667;SDS011;34453;52.198;5.004;2022-12-18T09:55:30;25.80;;;15.88;;
48667;SDS011;34453;52.198;5.004;2022-12-18T10:00:34;30.45;;;15.85;;
48667;SDS011;34453;52.198;5.004;2022-12-18T10:03:01;26.20;;;15.52;;
48667;SDS011;34453;52.198;5.004;2022-12-18T10:05:37;27.95;;;14.85;;
48667;SDS011;34453;52.198;5.004;2022-12-18T10:10:53;23.45;;;13.95;;
48667;SDS011;34453;52.198;5.004;2022-12-18T10:16:03;25.13;;;13.60;;
48667;SDS011;34453;52.198;5.004;2022-12-18T10:18:33;29.50;;;16.45;;
48667;SDS011;34453;52.198;5.004;2022-12-18T10:21:09;22.67;;;14.25;;
48667;SDS011;34453;52.198;5.004;2022-12-18T10:23:51;36.75;;;27.30;;
48667;SDS011;34453;52.198;5.004;2022-12-18T10:26:22;29.67;;;16.15;;
48667;SDS011;34453;52.198;5.004;2022-12-18T10:28:48;25.38;;;14.48;;
48667;SDS011;34453;52.198;5.004;2022-12-18T10:31:17;25.25;;;14.85;;
48667;SDS011;34453;52.198;5.004;2022-12-18T10:33:43;24.60;;;14.77;;
48667;SDS011;34453;52.198;5.004;2022-12-18T10:36:08;24.88;;;14.48;;
48667;SDS011;34453;52.198;5.004;2022-12-18T10:38:33;26.17;;;15.68;;
48667;SDS011;34453;52.198;5.004;2022-12-18T10:41:02;22.25;;;13.07;;
48667;SDS011;34453;52.198;5.004;2022-12-18T10:48:39;22.05;;;13.65;;
48667;SDS011;34453;52.198;5.004;2022-12-18T10:51:05;21.27;;;12.63;;
48667;SDS011;34453;52.198;5.004;2022-12-18T10:53:31;23.80;;;14.60;;
48667;SDS011;34453;52.198;5.004;2022-12-18T10:55:59;23.42;;;14.35;;
48667;SDS011;34453;52.198;5.004;2022-12-18T10:58:32;32.45;;;20.17;;
48667;SDS011;34453;52.198;5.004;2022-12-18T11:03:36;29.60;;;17.65;;
48667;SDS011;34453;52.198;5.004;2022-12-18T11:06:03;23.10;;;13.05;;
48667;SDS011;34453;52.198;5.004;2022-12-18T11:08:29;21.38;;;14.13;;
48667;SDS011;34453;52.198;5.004;2022-12-18T11:10:54;26.77;;;17.30;;
48667;SDS011;34453;52.198;5.004;2022-12-18T11:13:23;28.13;;;18.60;;
48667;SDS011;34453;52.198;5.004;2022-12-18T11:15:50;23.52;;;14.77;;
48667;SDS011;34453;52.198;5.004;2022-12-18T11:20:56;23.50;;;14.57;;
48667;SDS011;34453;52.198;5.004;2022-12-18T11:23:23;26.77;;;13.27;;
48667;SDS011;34453;52.198;5.004;2022-12-18T11:25:52;23.05;;;14.80;;
48667;SDS011;34453;52.198;5.004;2022-12-18T11:28:40;23.45;;;13.75;;
48667;SDS011;34453;52.198;5.004;2022-12-18T11:31:16;19.92;;;13.13;;
48667;SDS011;34453;52.198;5.004;2022-12-18T11:33:43;21.13;;;13.75;;
48667;SDS011;34453;52.198;5.004;2022-12-18T11:36:09;21.85;;;13.85;;
48667;SDS011;34453;52.198;5.004;2022-12-18T11:38:36;19.45;;;12.80;;
48667;SDS011;34453;52.198;5.004;2022-12-18T11:41:04;25.25;;;15.43;;
48667;SDS011;34453;52.198;5.004;2022-12-18T11:46:32;18.23;;;11.93;;
48667;SDS011;34453;52.198;5.004;2022-12-18T11:48:52;18.63;;;12.23;;
48667;SDS011;34453;52.198;5.004;2022-12-18T11:51:31;26.30;;;16.77;;
48667;SDS011;34453;52.198;5.004;2022-12-18T11:53:57;23.27;;;15.75;;
48667;SDS011;34453;52.198;5.004;2022-12-18T11:56:39;20.73;;;13.32;;
48667;SDS011;34453;52.198;5.004;2022-12-18T11:59:18;22.25;;;13.32;;
48667;SDS011;34453;52.198;5.004;2022-12-18T12:01:51;26.15;;;15.15;;
48667;SDS011;34453;52.198;5.004;2022-12-18T12:04:31;22.42;;;13.30;;
48667;SDS011;34453;52.198;5.004;2022-12-18T12:18:08;20.38;;;13.63;;
48667;SDS011;34453;52.198;5.004;2022-12-18T12:23:48;18.30;;;12.48;;
48667;SDS011;34453;52.198;5.004;2022-12-18T12:26:07;21.85;;;13.55;;
48667;SDS011;34453;52.198;5.004;2022-12-18T12:32:20;18.13;;;12.43;;
48667;SDS011;34453;52.198;5.004;2022-12-18T12:34:23;21.13;;;13.27;;
48667;SDS011;34453;52.198;5.004;2022-12-18T12:39:24;20.13;;;12.63;;
48667;SDS011;34453;52.198;5.004;2022-12-18T12:41:51;20.98;;;13.55;;
48667;SDS011;34453;52.198;5.004;2022-12-18T12:44:40;23.85;;;12.68;;
48667;SDS011;34453;52.198;5.004;2022-12-18T12:47:14;21.38;;;13.52;;
48667;SDS011;34453;52.198;5.004;2022-12-18T12:49:40;21.58;;;13.68;;
48667;SDS011;34453;52.198;5.004;2022-12-18T12:52:13;21.87;;;13.07;;
48667;SDS011;34453;52.198;5.004;2022-12-18T12:54:40;25.80;;;13.25;;
48667;SDS011;34453;52.198;5.004;2022-12-18T13:07:20;46.35;;;24.35;;
48667;SDS011;34453;52.198;5.004;2022-12-18T13:12:33;25.13;;;14.20;;
48667;SDS011;34453;52.198;5.004;2022-12-18T13:15:20;27.20;;;15.00;;
48667;SDS011;34453;52.198;5.004;2022-12-18T13:17:46;24.77;;;14.52;;
48667;SDS011;34453;52.198;5.004;2022-12-18T13:20:14;18.83;;;12.88;;
48667;SDS011;34453;52.198;5.004;2022-12-18T13:22:47;24.63;;;14.60;;
48667;SDS011;34453;52.198;5.004;2022-12-18T13:38:24;21.02;;;13.80;;
48667;SDS011;34453;52.198;5.004;2022-12-18T13:41:01;25.20;;;14.32;;
48667;SDS011;34453;52.198;5.004;2022-12-18T13:43:28;33.40;;;15.50;;
48667;SDS011;34453;52.198;5.004;2022-12-18T13:46:01;25.23;;;16.10;;
48667;SDS011;34453;52.198;5.004;2022-12-18T13:48:27;45.70;;;24.58;;
48667;SDS011;34453;52.198;5.004;2022-12-18T13:51:01;100.00;;;54.10;;
48667;SDS011;34453;52.198;5.004;2022-12-18T13:53:44;85.40;;;48.58;;
48667;SDS011;34453;52.198;5.004;2022-12-18T13:56:22;24.83;;;14.52;;
48667;SDS011;34453;52.198;5.004;2022-12-18T13:59:11;21.17;;;13.88;;
48667;SDS011;34453;52.198;5.004;2022-12-18T14:01:41;21.90;;;13.20;;
48667;SDS011;34453;52.198;5.004;2022-12-18T14:04:10;21.55;;;13.55;;
48667;SDS011;34453;52.198;5.004;2022-12-18T14:06:36;18.23;;;12.52;;
48667;SDS011;34453;52.198;5.004;2022-12-18T14:09:02;27.98;;;15.73;;
48667;SDS011;34453;52.198;5.004;2022-12-18T14:11:27;20.48;;;12.95;;
48667;SDS011;34453;52.198;5.004;2022-12-18T14:13:52;21.92;;;13.70;;
48667;SDS011;34453;52.198;5.004;2022-12-18T14:16:18;20.38;;;14.73;;
48667;SDS011;34453;52.198;5.004;2022-12-18T14:18:44;25.90;;;14.52;;
48667;SDS011;34453;52.198;5.004;2022-12-18T14:21:29;22.35;;;15.02;;
48667;SDS011;34453;52.198;5.004;2022-12-18T14:24:14;23.42;;;15.23;;
48667;SDS011;34453;52.198;5.004;2022-12-18T14:26:40;29.48;;;16.10;;
48667;SDS011;34453;52.198;5.004;2022-12-18T14:29:22;31.50;;;18.98;;
48667;SDS011;34453;52.198;5.004;2022-12-18T14:34:16;31.33;;;15.80;;
48667;SDS011;34453;52.198;5.004;2022-12-18T14:36:41;27.05;;;15.80;;
48667;SDS011;34453;52.198;5.004;2022-12-18T14:39:16;23.65;;;15.52;;
48667;SDS011;34453;52.198;5.004;2022-12-18T14:41:42;26.35;;;16.98;;
48667;SDS011;34453;52.198;5.004;2022-12-18T14:44:07;19.88;;;13.38;;
48667;SDS011;34453;52.198;5.004;2022-12-18T14:46:36;23.05;;;15.35;;
48667;SDS011;34453;52.198;5.004;2022-12-18T14:49:17;25.50;;;16.48;;
48667;SDS011;34453;52.198;5.004;2022-12-18T14:51:47;46.70;;;23.20;;
48667;SDS011;34453;52.198;5.004;2022-12-18T14:54:16;31.30;;;18.00;;
48667;SDS011;34453;52.198;5.004;2022-12-18T14:56:46;23.85;;;13.88;;
48667;SDS011;34453;52.198;5.004;2022-12-18T14:59:22;33.80;;;23.55;;
48667;SDS011;34453;52.198;5.004;2022-12-18T15:04:29;20.83;;;13.32;;
48667;SDS011;34453;52.198;5.004;2022-12-18T15:09:29;27.35;;;16.70;;
48667;SDS011;34453;52.198;5.004;2022-12-18T15:11:57;21.92;;;14.77;;
48667;SDS011;34453;52.198;5.004;2022-12-18T15:16:51;23.48;;;16.08;;
48667;SDS011;34453;52.198;5.004;2022-12-18T15:19:17;27.48;;;15.45;;
48667;SDS011;34453;52.198;5.004;2022-12-18T15:21:43;25.00;;;14.57;;
48667;SDS011;34453;52.198;5.004;2022-12-18T15:24:16;24.50;;;15.68;;
48667;SDS011;34453;52.198;5.004;2022-12-18T15:26:42;26.35;;;14.65;;
48667;SDS011;34453;52.198;5.004;2022-12-18T15:29:15;22.67;;;15.20;;
48667;SDS011;34453;52.198;5.004;2022-12-18T15:31:43;25.10;;;14.82;;
48667;SDS011;34453;52.198;5.004;2022-12-18T15:34:10;27.70;;;16.42;;
48667;SDS011;34453;52.198;5.004;2022-12-18T15:36:37;26.80;;;16.58;;
48667;SDS011;34453;52.198;5.004;2022-12-18T15:39:03;31.45;;;19.10;;
48667;SDS011;34453;52.198;5.004;2022-12-18T15:41:30;24.15;;;15.88;;
48667;SDS011;34453;52.198;5.004;2022-12-18T15:43:55;26.88;;;14.35;;
48667;SDS011;34453;52.198;5.004;2022-12-18T15:46:21;22.40;;;15.27;;
48667;SDS011;34453;52.198;5.004;2022-12-18T15:48:51;22.70;;;14.45;;
48667;SDS011;34453;52.198;5.004;2022-12-18T15:51:24;25.13;;;15.27;;
48667;SDS011;34453;52.198;5.004;2022-12-18T15:53:52;27.73;;;15.75;;
48667;SDS011;34453;52.198;5.004;2022-12-18T15:56:17;23.00;;;14.07;;
48667;SDS011;34453;52.198;5.004;2022-12-18T15:59:01;25.30;;;14.77;;
48667;SDS011;34453;52.198;5.004;2022-12-18T16:01:28;24.45;;;16.00;;
48667;SDS011;34453;52.198;5.004;2022-12-18T16:03:54;26.73;;;15.35;;
48667;SDS011;34453;52.198;5.004;2022-12-18T16:06:20;26.23;;;15.32;;
48667;SDS011;34453;52.198;5.004;2022-12-18T16:08:45;30.08;;;16.05;;
48667;SDS011;34453;52.198;5.004;2022-12-18T16:11:19;27.35;;;15.68;;
48667;SDS011;34453;52.198;5.004;2022-12-18T16:14:02;28.88;;;16.15;;
48667;SDS011;34453;52.198;5.004;2022-12-18T16:16:28;27.85;;;15.95;;